sensor_id;sensor_type;location;lat;lon;timestamp;pressure;altitude;pressure_sealevel;temperature;humidity
74960;BME280;63518;49.572;1.106;2023-08-06T00:00:57;99192.91;;;11.89;100.00
74960;BME280;63518;49.572;1.106;2023-08-06T00:03:24;99194.34;;;11.86;100.00
74960;BME280;63518;49.572;1.106;2023-08-06T00:05:56;99193.31;;;11.96;100.00
74960;BME280;63518;49.572;1.106;2023-08-06T00:08:23;99203.63;;;11.90;100.00
74960;BME280;63518;49.572;1.106;2023-08-06T00:10:57;99204.28;;;12.15;100.00
74960;BME280;63518;49.572;1.106;2023-08-06T00:13:24;99214.88;;;11.80;100.00
74960;BME280;63518;49.572;1.106;2023-08-06T00:15:54;99209.81;;;12.01;100.00
74960;BME280;63518;49.572;1.106;2023-08-06T00:18:21;99216.19;;;11.83;100.00
74960;BME280;63518;49.572;1.106;2023-08-06T00:20:48;99209.66;;;11.93;100.00
74960;BME280;63518;49.572;1.106;2023-08-06T00:23:18;99216.59;;;11.76;100.00
74960;BME280;63518;49.572;1.106;2023-08-06T00:25:50;99228.63;;;12.13;100.00
74960;BME280;63518;49.572;1.106;2023-08-06T00:28:17;99230.94;;;11.92;100.00
74960;BME280;63518;49.572;1.106;2023-08-06T00:30:55;99209.78;;;11.55;100.00
74960;BME280;63518;49.572;1.106;2023-08-06T00:33:23;99226.34;;;11.69;100.00
74960;BME280;63518;49.572;1.106;2023-08-06T00:35:50;99223.34;;;11.84;100.00
74960;BME280;63518;49.572;1.106;2023-08-06T00:38:18;99226.22;;;11.93;100.00
74960;BME280;63518;49.572;1.106;2023-08-06T00:40:45;99237.34;;;12.20;100.00
74960;BME280;63518;49.572;1.106;2023-08-06T00:43:15;99228.75;;;11.75;100.00
74960;BME280;63518;49.572;1.106;2023-08-06T00:45:46;99237.00;;;11.61;100.00
74960;BME280;63518;49.572;1.106;2023-08-06T00:48:13;99238.97;;;11.75;100.00
74960;BME280;63518;49.572;1.106;2023-08-06T00:50:40;99240.75;;;11.84;100.00
74960;BME280;63518;49.572;1.106;2023-08-06T00:53:08;99257.34;;;11.98;100.00
74960;BME280;63518;49.572;1.106;2023-08-06T00:55:35;99255.69;;;11.83;100.00
74960;BME280;63518;49.572;1.106;2023-08-06T00:58:03;99259.34;;;11.60;100.00
74960;BME280;63518;49.572;1.106;2023-08-06T01:00:31;99257.84;;;11.68;100.00
74960;BME280;63518;49.572;1.106;2023-08-06T01:02:58;99263.63;;;11.71;100.00
74960;BME280;63518;49.572;1.106;2023-08-06T01:05:30;99265.91;;;11.83;100.00
74960;BME280;63518;49.572;1.106;2023-08-06T01:13:42;99267.75;;;11.69;100.00
74960;BME280;63518;49.572;1.106;2023-08-06T01:16:15;99279.91;;;11.54;100.00
74960;BME280;63518;49.572;1.106;2023-08-06T01:18:47;99253.09;;;11.22;100.00
74960;BME280;63518;49.572;1.106;2023-08-06T01:21:21;99281.97;;;11.62;100.00
74960;BME280;63518;49.572;1.106;2023-08-06T01:23:58;99285.69;;;11.52;100.00
74960;BME280;63518;49.572;1.106;2023-08-06T01:26:41;99290.06;;;11.40;100.00
74960;BME280;63518;49.572;1.106;2023-08-06T01:29:24;99294.38;;;11.46;100.00
74960;BME280;63518;49.572;1.106;2023-08-06T01:31:52;99272.53;;;11.12;100.00
74960;BME280;63518;49.572;1.106;2023-08-06T01:34:28;99278.47;;;11.56;100.00
74960;BME280;63518;49.572;1.106;2023-08-06T01:36:55;99286.00;;;11.51;100.00
74960;BME280;63518;49.572;1.106;2023-08-06T01:39:26;99295.16;;;11.65;100.00
74960;BME280;63518;49.572;1.106;2023-08-06T01:42:10;99307.84;;;11.85;100.00
74960;BME280;63518;49.572;1.106;2023-08-06T01:44:40;99310.09;;;11.45;100.00
74960;BME280;63518;49.572;1.106;2023-08-06T01:47:07;99302.28;;;11.71;100.00
74960;BME280;63518;49.572;1.106;2023-08-06T01:49:36;99302.63;;;11.83;100.00
74960;BME280;63518;49.572;1.106;2023-08-06T01:52:03;99300.03;;;11.54;100.00
74960;BME280;63518;49.572;1.106;2023-08-06T01:54:30;99300.47;;;11.61;100.00
74960;BME280;63518;49.572;1.106;2023-08-06T01:57:03;99299.13;;;11.59;100.00
74960;BME280;63518;49.572;1.106;2023-08-06T01:59:30;99322.78;;;11.65;100.00
74960;BME280;63518;49.572;1.106;2023-08-06T02:02:01;99308.00;;;11.56;100.00
74960;BME280;63518;49.572;1.106;2023-08-06T02:04:31;99332.47;;;11.44;100.00
74960;BME280;63518;49.572;1.106;2023-08-06T02:07:00;99339.19;;;11.56;100.00
74960;BME280;63518;49.572;1.106;2023-08-06T02:09:27;99329.84;;;11.52;100.00
74960;BME280;63518;49.572;1.106;2023-08-06T02:11:54;99351.41;;;11.50;100.00
74960;BME280;63518;49.572;1.106;2023-08-06T02:14:22;99349.56;;;11.46;100.00
74960;BME280;63518;49.572;1.106;2023-08-06T02:16:49;99346.75;;;11.70;100.00
74960;BME280;63518;49.572;1.106;2023-08-06T02:19:18;99348.91;;;11.73;100.00
74960;BME280;63518;49.572;1.106;2023-08-06T02:21:45;99339.34;;;11.46;100.00
74960;BME280;63518;49.572;1.106;2023-08-06T02:24:12;99357.09;;;11.40;100.00
74960;BME280;63518;49.572;1.106;2023-08-06T02:26:39;99328.00;;;11.48;100.00
74960;BME280;63518;49.572;1.106;2023-08-06T02:29:06;99337.06;;;11.72;100.00
74960;BME280;63518;49.572;1.106;2023-08-06T02:31:37;99350.69;;;11.63;100.00
74960;BME280;63518;49.572;1.106;2023-08-06T02:34:06;99356.56;;;11.57;100.00
74960;BME280;63518;49.572;1.106;2023-08-06T02:36:35;99355.59;;;11.48;100.00
74960;BME280;63518;49.572;1.106;2023-08-06T02:39:02;99365.28;;;11.45;100.00
74960;BME280;63518;49.572;1.106;2023-08-06T02:41:29;99367.22;;;11.45;100.00
74960;BME280;63518;49.572;1.106;2023-08-06T02:43:57;99370.19;;;11.29;100.00
74960;BME280;63518;49.572;1.106;2023-08-06T02:46:45;99363.19;;;11.37;100.00
74960;BME280;63518;49.572;1.106;2023-08-06T02:49:15;99380.59;;;11.56;100.00
74960;BME280;63518;49.572;1.106;2023-08-06T02:51:45;99382.69;;;11.64;100.00
74960;BME280;63518;49.572;1.106;2023-08-06T02:54:14;99385.16;;;11.85;100.00
74960;BME280;63518;49.572;1.106;2023-08-06T02:56:44;99379.09;;;11.64;100.00
74960;BME280;63518;49.572;1.106;2023-08-06T02:59:12;99384.78;;;11.54;100.00
74960;BME280;63518;49.572;1.106;2023-08-06T03:01:42;99379.97;;;11.59;100.00
74960;BME280;63518;49.572;1.106;2023-08-06T03:04:09;99378.88;;;11.60;100.00
74960;BME280;63518;49.572;1.106;2023-08-06T03:06:36;99375.47;;;11.87;100.00
74960;BME280;63518;49.572;1.106;2023-08-06T03:09:03;99377.22;;;11.41;100.00
74960;BME280;63518;49.572;1.106;2023-08-06T03:11:30;99386.59;;;11.82;100.00
74960;BME280;63518;49.572;1.106;2023-08-06T03:13:58;99392.28;;;11.67;100.00
74960;BME280;63518;49.572;1.106;2023-08-06T03:16:28;99386.41;;;11.93;100.00
74960;BME280;63518;49.572;1.106;2023-08-06T03:19:07;99384.09;;;11.62;100.00
74960;BME280;63518;49.572;1.106;2023-08-06T03:21:36;99391.38;;;11.34;100.00
74960;BME280;63518;49.572;1.106;2023-08-06T03:24:03;99390.56;;;11.33;100.00
74960;BME280;63518;49.572;1.106;2023-08-06T03:26:30;99402.78;;;11.70;100.00
74960;BME280;63518;49.572;1.106;2023-08-06T03:29:20;99383.09;;;11.34;100.00
74960;BME280;63518;49.572;1.106;2023-08-06T03:31:49;99402.06;;;11.41;100.00
74960;BME280;63518;49.572;1.106;2023-08-06T03:34:16;99381.38;;;11.19;100.00
74960;BME280;63518;49.572;1.106;2023-08-06T03:36:45;99410.50;;;11.68;100.00
74960;BME280;63518;49.572;1.106;2023-08-06T03:39:14;99392.25;;;11.53;100.00
74960;BME280;63518;49.572;1.106;2023-08-06T03:41:41;99418.25;;;11.47;100.00
74960;BME280;63518;49.572;1.106;2023-08-06T03:44:08;99405.25;;;11.29;100.00
74960;BME280;63518;49.572;1.106;2023-08-06T03:46:40;99427.41;;;11.24;100.00
74960;BME280;63518;49.572;1.106;2023-08-06T03:49:08;99429.66;;;11.41;100.00
74960;BME280;63518;49.572;1.106;2023-08-06T03:51:37;99443.72;;;11.63;100.00
74960;BME280;63518;49.572;1.106;2023-08-06T03:54:10;99442.47;;;11.31;100.00
74960;BME280;63518;49.572;1.106;2023-08-06T03:56:37;99455.75;;;11.72;100.00
74960;BME280;63518;49.572;1.106;2023-08-06T03:59:04;99453.81;;;11.91;100.00
74960;BME280;63518;49.572;1.106;2023-08-06T04:01:30;99460.50;;;11.67;100.00
74960;BME280;63518;49.572;1.106;2023-08-06T04:03:57;99459.97;;;11.64;100.00
74960;BME280;63518;49.572;1.106;2023-08-06T04:06:33;99435.41;;;11.20;100.00
74960;BME280;63518;49.572;1.106;2023-08-06T04:09:00;99451.19;;;11.62;100.00
74960;BME280;63518;49.572;1.106;2023-08-06T04:11:27;99444.44;;;11.50;100.00
74960;BME280;63518;49.572;1.106;2023-08-06T04:13:54;99442.16;;;11.33;100.00
74960;BME280;63518;49.572;1.106;2023-08-06T04:16:29;99465.84;;;11.39;100.00
74960;BME280;63518;49.572;1.106;2023-08-06T04:18:56;99478.72;;;11.44;100.00
74960;BME280;63518;49.572;1.106;2023-08-06T04:21:27;99476.69;;;11.54;100.00
74960;BME280;63518;49.572;1.106;2023-08-06T04:23:59;99481.91;;;11.32;100.00
74960;BME280;63518;49.572;1.106;2023-08-06T04:26:36;99480.38;;;11.45;100.00
74960;BME280;63518;49.572;1.106;2023-08-06T04:29:03;99483.13;;;11.21;100.00
74960;BME280;63518;49.572;1.106;2023-08-06T04:31:30;99489.44;;;11.26;100.00
74960;BME280;63518;49.572;1.106;2023-08-06T04:33:59;99495.22;;;11.49;100.00
74960;BME280;63518;49.572;1.106;2023-08-06T04:36:28;99508.44;;;11.52;100.00
74960;BME280;63518;49.572;1.106;2023-08-06T04:38:55;99491.88;;;11.28;100.00
74960;BME280;63518;49.572;1.106;2023-08-06T04:41:22;99505.47;;;11.24;100.00
74960;BME280;63518;49.572;1.106;2023-08-06T04:43:49;99489.69;;;11.30;100.00
74960;BME280;63518;49.572;1.106;2023-08-06T04:46:16;99498.94;;;11.15;100.00
74960;BME280;63518;49.572;1.106;2023-08-06T04:48:48;99509.97;;;11.15;100.00
74960;BME280;63518;49.572;1.106;2023-08-06T04:51:20;99492.66;;;11.10;100.00
74960;BME280;63518;49.572;1.106;2023-08-06T04:53:47;99510.88;;;11.05;100.00
74960;BME280;63518;49.572;1.106;2023-08-06T04:56:17;99513.13;;;11.27;100.00
74960;BME280;63518;49.572;1.106;2023-08-06T04:58:46;99519.81;;;11.21;100.00
74960;BME280;63518;49.572;1.106;2023-08-06T05:01:13;99523.66;;;10.96;100.00
74960;BME280;63518;49.572;1.106;2023-08-06T05:03:44;99508.41;;;11.04;100.00
74960;BME280;63518;49.572;1.106;2023-08-06T05:06:11;99534.03;;;11.10;100.00
74960;BME280;63518;49.572;1.106;2023-08-06T05:08:38;99538.75;;;11.04;100.00
74960;BME280;63518;49.572;1.106;2023-08-06T05:11:07;99560.13;;;11.22;100.00
74960;BME280;63518;49.572;1.106;2023-08-06T05:13:36;99527.63;;;10.85;100.00
74960;BME280;63518;49.572;1.106;2023-08-06T05:16:03;99552.06;;;10.68;100.00
74960;BME280;63518;49.572;1.106;2023-08-06T05:18:33;99549.91;;;10.94;100.00
74960;BME280;63518;49.572;1.106;2023-08-06T05:21:01;99548.41;;;10.72;100.00
74960;BME280;63518;49.572;1.106;2023-08-06T05:23:32;99565.97;;;10.82;100.00
74960;BME280;63518;49.572;1.106;2023-08-06T05:25:59;99578.63;;;10.88;100.00
74960;BME280;63518;49.572;1.106;2023-08-06T05:28:28;99550.94;;;10.69;100.00
74960;BME280;63518;49.572;1.106;2023-08-06T05:30:58;99595.13;;;10.93;100.00
74960;BME280;63518;49.572;1.106;2023-08-06T05:33:25;99593.63;;;10.71;100.00
74960;BME280;63518;49.572;1.106;2023-08-06T05:35:52;99580.00;;;10.90;100.00
74960;BME280;63518;49.572;1.106;2023-08-06T05:38:18;99598.72;;;10.93;100.00
74960;BME280;63518;49.572;1.106;2023-08-06T05:40:49;99600.69;;;10.88;100.00
74960;BME280;63518;49.572;1.106;2023-08-06T05:43:16;99579.22;;;10.85;100.00
74960;BME280;63518;49.572;1.106;2023-08-06T05:45:49;99604.53;;;10.92;100.00
74960;BME280;63518;49.572;1.106;2023-08-06T05:48:19;99581.47;;;10.77;100.00
74960;BME280;63518;49.572;1.106;2023-08-06T05:50:56;99601.28;;;10.79;100.00
74960;BME280;63518;49.572;1.106;2023-08-06T05:53:23;99590.25;;;10.79;100.00
74960;BME280;63518;49.572;1.106;2023-08-06T05:55:50;99597.09;;;10.87;100.00
74960;BME280;63518;49.572;1.106;2023-08-06T05:58:19;99605.53;;;11.01;100.00
74960;BME280;63518;49.572;1.106;2023-08-06T06:00:51;99618.22;;;11.02;100.00
74960;BME280;63518;49.572;1.106;2023-08-06T06:03:23;99627.19;;;11.18;100.00
74960;BME280;63518;49.572;1.106;2023-08-06T06:05:52;99638.41;;;11.26;100.00
74960;BME280;63518;49.572;1.106;2023-08-06T06:08:21;99643.41;;;11.24;100.00
74960;BME280;63518;49.572;1.106;2023-08-06T06:10:47;99635.34;;;10.99;100.00
74960;BME280;63518;49.572;1.106;2023-08-06T06:13:14;99643.19;;;11.16;100.00
74960;BME280;63518;49.572;1.106;2023-08-06T06:15:41;99640.28;;;11.02;100.00
74960;BME280;63518;49.572;1.106;2023-08-06T06:18:11;99663.94;;;11.42;100.00
74960;BME280;63518;49.572;1.106;2023-08-06T06:20:41;99649.53;;;11.16;100.00
74960;BME280;63518;49.572;1.106;2023-08-06T06:23:08;99661.09;;;11.18;100.00
74960;BME280;63518;49.572;1.106;2023-08-06T06:25:42;99642.88;;;11.22;100.00
74960;BME280;63518;49.572;1.106;2023-08-06T06:28:10;99665.38;;;11.34;100.00
74960;BME280;63518;49.572;1.106;2023-08-06T06:30:38;99670.06;;;11.34;100.00
74960;BME280;63518;49.572;1.106;2023-08-06T06:33:04;99669.75;;;11.41;100.00
74960;BME280;63518;49.572;1.106;2023-08-06T06:35:34;99658.03;;;11.25;100.00
74960;BME280;63518;49.572;1.106;2023-08-06T06:38:00;99657.81;;;11.45;100.00
74960;BME280;63518;49.572;1.106;2023-08-06T06:40:29;99681.00;;;11.44;100.00
74960;BME280;63518;49.572;1.106;2023-08-06T06:42:59;99661.25;;;11.61;100.00
74960;BME280;63518;49.572;1.106;2023-08-06T06:45:26;99678.47;;;11.82;100.00
74960;BME280;63518;49.572;1.106;2023-08-06T06:47:55;99678.44;;;11.87;100.00
74960;BME280;63518;49.572;1.106;2023-08-06T06:50:29;99661.72;;;11.68;100.00
74960;BME280;63518;49.572;1.106;2023-08-06T06:52:58;99681.69;;;11.60;100.00
74960;BME280;63518;49.572;1.106;2023-08-06T06:55:25;99681.53;;;11.80;100.00
74960;BME280;63518;49.572;1.106;2023-08-06T06:57:52;99699.56;;;11.97;100.00
74960;BME280;63518;49.572;1.106;2023-08-06T07:00:21;99698.50;;;11.93;100.00
74960;BME280;63518;49.572;1.106;2023-08-06T07:02:55;99689.31;;;12.02;100.00
74960;BME280;63518;49.572;1.106;2023-08-06T07:05:22;99695.34;;;12.04;100.00
74960;BME280;63518;49.572;1.106;2023-08-06T07:07:52;99699.41;;;12.12;100.00
74960;BME280;63518;49.572;1.106;2023-08-06T07:10:27;99694.81;;;12.26;100.00
74960;BME280;63518;49.572;1.106;2023-08-06T07:12:54;99705.59;;;12.46;100.00
74960;BME280;63518;49.572;1.106;2023-08-06T07:15:21;99705.75;;;12.36;100.00
74960;BME280;63518;49.572;1.106;2023-08-06T07:17:50;99673.28;;;12.23;100.00
74960;BME280;63518;49.572;1.106;2023-08-06T07:20:20;99696.28;;;12.18;100.00
74960;BME280;63518;49.572;1.106;2023-08-06T07:22:49;99700.84;;;12.52;100.00
74960;BME280;63518;49.572;1.106;2023-08-06T07:25:17;99689.56;;;12.49;100.00
74960;BME280;63518;49.572;1.106;2023-08-06T07:27:44;99712.13;;;12.56;100.00
74960;BME280;63518;49.572;1.106;2023-08-06T07:30:11;99702.03;;;12.46;100.00
74960;BME280;63518;49.572;1.106;2023-08-06T07:32:38;99714.00;;;12.79;100.00
74960;BME280;63518;49.572;1.106;2023-08-06T07:35:12;99658.75;;;12.36;100.00
74960;BME280;63518;49.572;1.106;2023-08-06T07:37:41;99722.69;;;12.91;100.00
74960;BME280;63518;49.572;1.106;2023-08-06T07:40:11;99726.16;;;13.02;100.00
74960;BME280;63518;49.572;1.106;2023-08-06T07:42:42;99726.09;;;12.88;100.00
74960;BME280;63518;49.572;1.106;2023-08-06T07:45:15;99708.44;;;13.03;100.00
74960;BME280;63518;49.572;1.106;2023-08-06T07:47:42;99714.41;;;12.91;100.00
74960;BME280;63518;49.572;1.106;2023-08-06T07:50:09;99713.28;;;12.92;100.00
74960;BME280;63518;49.572;1.106;2023-08-06T07:52:36;99731.84;;;13.29;100.00
74960;BME280;63518;49.572;1.106;2023-08-06T07:55:03;99716.78;;;12.79;100.00
74960;BME280;63518;49.572;1.106;2023-08-06T07:57:32;99720.31;;;12.66;100.00
74960;BME280;63518;49.572;1.106;2023-08-06T07:59:59;99745.63;;;13.16;100.00
74960;BME280;63518;49.572;1.106;2023-08-06T08:02:26;99727.59;;;12.99;100.00
74960;BME280;63518;49.572;1.106;2023-08-06T08:04:55;99728.19;;;13.15;100.00
74960;BME280;63518;49.572;1.106;2023-08-06T08:07:27;99726.75;;;13.18;100.00
74960;BME280;63518;49.572;1.106;2023-08-06T08:09:59;99740.69;;;13.13;100.00
74960;BME280;63518;49.572;1.106;2023-08-06T08:12:28;99729.16;;;13.24;100.00
74960;BME280;63518;49.572;1.106;2023-08-06T08:14:56;99728.72;;;13.50;100.00
74960;BME280;63518;49.572;1.106;2023-08-06T08:17:22;99745.53;;;13.40;100.00
74960;BME280;63518;49.572;1.106;2023-08-06T08:19:49;99745.09;;;13.65;100.00
74960;BME280;63518;49.572;1.106;2023-08-06T08:22:18;99738.03;;;13.59;100.00
74960;BME280;63518;49.572;1.106;2023-08-06T08:24:45;99752.13;;;13.44;100.00
74960;BME280;63518;49.572;1.106;2023-08-06T08:27:12;99767.06;;;13.43;100.00
74960;BME280;63518;49.572;1.106;2023-08-06T08:29:39;99737.66;;;13.47;100.00
74960;BME280;63518;49.572;1.106;2023-08-06T08:32:06;99761.88;;;13.88;100.00
74960;BME280;63518;49.572;1.106;2023-08-06T08:34:34;99753.75;;;13.77;100.00
74960;BME280;63518;49.572;1.106;2023-08-06T08:37:01;99753.47;;;14.39;100.00
74960;BME280;63518;49.572;1.106;2023-08-06T08:39:28;99747.00;;;14.57;100.00
74960;BME280;63518;49.572;1.106;2023-08-06T08:41:55;99741.75;;;14.42;100.00
74960;BME280;63518;49.572;1.106;2023-08-06T08:44:23;99756.53;;;14.37;100.00
74960;BME280;63518;49.572;1.106;2023-08-06T08:47:15;99760.81;;;14.98;100.00
74960;BME280;63518;49.572;1.106;2023-08-06T08:49:46;99766.56;;;15.02;100.00
74960;BME280;63518;49.572;1.106;2023-08-06T08:52:15;99763.16;;;15.05;100.00
74960;BME280;63518;49.572;1.106;2023-08-06T08:54:44;99755.94;;;14.40;100.00
74960;BME280;63518;49.572;1.106;2023-08-06T08:57:26;99741.66;;;14.47;100.00
74960;BME280;63518;49.572;1.106;2023-08-06T09:00:04;99755.81;;;14.59;100.00
74960;BME280;63518;49.572;1.106;2023-08-06T09:02:33;99774.63;;;14.49;100.00
74960;BME280;63518;49.572;1.106;2023-08-06T09:05:03;99766.81;;;14.64;100.00
74960;BME280;63518;49.572;1.106;2023-08-06T09:07:41;99769.88;;;14.77;100.00
74960;BME280;63518;49.572;1.106;2023-08-06T09:10:16;99766.59;;;14.61;100.00
74960;BME280;63518;49.572;1.106;2023-08-06T09:12:51;99792.09;;;14.63;100.00
74960;BME280;63518;49.572;1.106;2023-08-06T09:15:24;99775.56;;;14.58;100.00
74960;BME280;63518;49.572;1.106;2023-08-06T09:17:52;99781.13;;;15.08;100.00
74960;BME280;63518;49.572;1.106;2023-08-06T09:20:19;99766.91;;;14.73;100.00
74960;BME280;63518;49.572;1.106;2023-08-06T09:22:47;99773.88;;;14.98;100.00
74960;BME280;63518;49.572;1.106;2023-08-06T09:25:23;99795.09;;;15.66;100.00
74960;BME280;63518;49.572;1.106;2023-08-06T09:27:51;99773.63;;;15.08;100.00
74960;BME280;63518;49.572;1.106;2023-08-06T09:30:36;99799.38;;;14.45;100.00
74960;BME280;63518;49.572;1.106;2023-08-06T09:33:03;99785.00;;;14.43;100.00
74960;BME280;63518;49.572;1.106;2023-08-06T09:35:31;99780.47;;;14.88;100.00
74960;BME280;63518;49.572;1.106;2023-08-06T09:38:08;99787.81;;;15.34;100.00
74960;BME280;63518;49.572;1.106;2023-08-06T09:40:40;99759.81;;;15.31;100.00
74960;BME280;63518;49.572;1.106;2023-08-06T09:43:07;99789.53;;;15.66;100.00
74960;BME280;63518;49.572;1.106;2023-08-06T09:45:39;99800.47;;;15.13;100.00
74960;BME280;63518;49.572;1.106;2023-08-06T09:48:11;99797.97;;;15.61;100.00
74960;BME280;63518;49.572;1.106;2023-08-06T09:50:38;99807.41;;;14.47;100.00
74960;BME280;63518;49.572;1.106;2023-08-06T09:53:07;99806.59;;;14.46;100.00
74960;BME280;63518;49.572;1.106;2023-08-06T09:56:15;99801.94;;;14.96;100.00
74960;BME280;63518;49.572;1.106;2023-08-06T09:58:51;99812.31;;;14.36;100.00
74960;BME280;63518;49.572;1.106;2023-08-06T10:01:19;99834.22;;;14.79;100.00
74960;BME280;63518;49.572;1.106;2023-08-06T10:03:49;99823.09;;;14.51;100.00
74960;BME280;63518;49.572;1.106;2023-08-06T10:06:23;99828.16;;;14.77;100.00
74960;BME280;63518;49.572;1.106;2023-08-06T10:08:54;99833.50;;;15.64;100.00
74960;BME280;63518;49.572;1.106;2023-08-06T10:11:30;99833.06;;;15.35;100.00
74960;BME280;63518;49.572;1.106;2023-08-06T10:14:04;99830.31;;;15.57;100.00
74960;BME280;63518;49.572;1.106;2023-08-06T10:16:36;99827.22;;;14.67;100.00
74960;BME280;63518;49.572;1.106;2023-08-06T10:19:05;99823.63;;;15.22;100.00
74960;BME280;63518;49.572;1.106;2023-08-06T10:21:38;99837.50;;;14.67;100.00
74960;BME280;63518;49.572;1.106;2023-08-06T10:24:08;99841.09;;;14.40;100.00
74960;BME280;63518;49.572;1.106;2023-08-06T10:26:38;99820.97;;;14.62;100.00
74960;BME280;63518;49.572;1.106;2023-08-06T10:29:36;99839.13;;;15.23;100.00
74960;BME280;63518;49.572;1.106;2023-08-06T10:32:03;99845.19;;;15.39;100.00
74960;BME280;63518;49.572;1.106;2023-08-06T10:34:59;99842.13;;;15.27;100.00
74960;BME280;63518;49.572;1.106;2023-08-06T10:37:39;99843.94;;;15.81;100.00
74960;BME280;63518;49.572;1.106;2023-08-06T10:40:06;99833.25;;;15.97;100.00
74960;BME280;63518;49.572;1.106;2023-08-06T10:42:34;99827.66;;;16.19;100.00
74960;BME280;63518;49.572;1.106;2023-08-06T10:45:19;99826.00;;;16.41;100.00
74960;BME280;63518;49.572;1.106;2023-08-06T10:47:49;99829.38;;;16.06;100.00
74960;BME280;63518;49.572;1.106;2023-08-06T10:54:28;99820.56;;;16.04;100.00
74960;BME280;63518;49.572;1.106;2023-08-06T10:57:20;99839.47;;;15.58;100.00
74960;BME280;63518;49.572;1.106;2023-08-06T11:00:38;99815.88;;;15.69;100.00
74960;BME280;63518;49.572;1.106;2023-08-06T11:03:05;99847.44;;;15.95;100.00
74960;BME280;63518;49.572;1.106;2023-08-06T11:05:33;99785.69;;;15.76;100.00
74960;BME280;63518;49.572;1.106;2023-08-06T11:08:00;99795.34;;;16.63;100.00
74960;BME280;63518;49.572;1.106;2023-08-06T11:11:10;99804.50;;;16.24;100.00
74960;BME280;63518;49.572;1.106;2023-08-06T11:13:40;99836.41;;;15.45;100.00
74960;BME280;63518;49.572;1.106;2023-08-06T11:16:08;99826.66;;;16.77;100.00
74960;BME280;63518;49.572;1.106;2023-08-06T11:18:35;99843.09;;;16.25;100.00
74960;BME280;63518;49.572;1.106;2023-08-06T11:21:02;99817.06;;;15.76;100.00
74960;BME280;63518;49.572;1.106;2023-08-06T11:23:30;99845.56;;;16.58;100.00
74960;BME280;63518;49.572;1.106;2023-08-06T11:25:57;99847.41;;;17.11;100.00
74960;BME280;63518;49.572;1.106;2023-08-06T11:28:24;99849.03;;;16.10;100.00
74960;BME280;63518;49.572;1.106;2023-08-06T11:30:52;99850.97;;;17.03;100.00
74960;BME280;63518;49.572;1.106;2023-08-06T11:33:25;99846.78;;;16.74;100.00
74960;BME280;63518;49.572;1.106;2023-08-06T11:35:55;99858.00;;;16.91;100.00
74960;BME280;63518;49.572;1.106;2023-08-06T11:38:25;99821.00;;;15.75;100.00
74960;BME280;63518;49.572;1.106;2023-08-06T11:40:54;99837.78;;;16.69;100.00
74960;BME280;63518;49.572;1.106;2023-08-06T11:43:21;99837.34;;;15.99;100.00
74960;BME280;63518;49.572;1.106;2023-08-06T11:45:49;99859.34;;;16.63;100.00
74960;BME280;63518;49.572;1.106;2023-08-06T11:48:17;99861.13;;;16.28;100.00
74960;BME280;63518;49.572;1.106;2023-08-06T11:50:45;99845.31;;;15.56;100.00
74960;BME280;63518;49.572;1.106;2023-08-06T11:53:15;99840.31;;;16.96;100.00
74960;BME280;63518;49.572;1.106;2023-08-06T11:55:42;99840.25;;;17.27;100.00
74960;BME280;63518;49.572;1.106;2023-08-06T11:58:12;99834.22;;;16.46;100.00
74960;BME280;63518;49.572;1.106;2023-08-06T12:00:39;99828.38;;;16.25;100.00
74960;BME280;63518;49.572;1.106;2023-08-06T12:03:06;99840.13;;;17.50;100.00
74960;BME280;63518;49.572;1.106;2023-08-06T12:05:33;99836.53;;;17.40;99.29
74960;BME280;63518;49.572;1.106;2023-08-06T12:08:01;99841.09;;;16.88;100.00
74960;BME280;63518;49.572;1.106;2023-08-06T12:10:30;99844.72;;;16.88;100.00
74960;BME280;63518;49.572;1.106;2023-08-06T12:12:57;99853.53;;;16.51;100.00
74960;BME280;63518;49.572;1.106;2023-08-06T12:15:27;99850.13;;;17.68;100.00
74960;BME280;63518;49.572;1.106;2023-08-06T12:18:05;99856.56;;;18.12;96.31
74960;BME280;63518;49.572;1.106;2023-08-06T12:20:35;99852.44;;;17.49;97.13
74960;BME280;63518;49.572;1.106;2023-08-06T12:23:22;99818.22;;;17.00;99.07
74960;BME280;63518;49.572;1.106;2023-08-06T12:26:08;99860.41;;;17.15;100.00
74960;BME280;63518;49.572;1.106;2023-08-06T12:28:42;99783.84;;;16.56;97.28
74960;BME280;63518;49.572;1.106;2023-08-06T12:31:13;99858.34;;;16.28;100.00
74960;BME280;63518;49.572;1.106;2023-08-06T12:33:40;99856.06;;;17.01;98.03
74960;BME280;63518;49.572;1.106;2023-08-06T12:36:07;99861.09;;;17.38;100.00
74960;BME280;63518;49.572;1.106;2023-08-06T12:38:37;99856.66;;;16.89;96.97
74960;BME280;63518;49.572;1.106;2023-08-06T12:41:04;99858.50;;;17.68;99.81
74960;BME280;63518;49.572;1.106;2023-08-06T12:43:36;99844.19;;;17.26;99.27
74960;BME280;63518;49.572;1.106;2023-08-06T12:46:25;99870.66;;;18.07;97.98
74960;BME280;63518;49.572;1.106;2023-08-06T12:48:57;99849.16;;;17.90;96.05
74960;BME280;63518;49.572;1.106;2023-08-06T12:51:25;99868.44;;;18.47;94.06
74960;BME280;63518;49.572;1.106;2023-08-06T12:54:18;99856.38;;;17.73;95.94
74960;BME280;63518;49.572;1.106;2023-08-06T12:56:48;99852.28;;;17.62;98.07
74960;BME280;63518;49.572;1.106;2023-08-06T12:59:27;99870.44;;;17.34;100.00
74960;BME280;63518;49.572;1.106;2023-08-06T13:02:00;99865.09;;;18.71;97.66
74960;BME280;63518;49.572;1.106;2023-08-06T13:04:35;99869.59;;;19.01;92.78
74960;BME280;63518;49.572;1.106;2023-08-06T13:07:04;99845.28;;;17.08;96.08
74960;BME280;63518;49.572;1.106;2023-08-06T13:10:22;99839.22;;;18.53;91.05
74960;BME280;63518;49.572;1.106;2023-08-06T13:13:16;99834.63;;;16.30;91.66
74960;BME280;63518;49.572;1.106;2023-08-06T13:16:12;99834.31;;;16.63;93.16
74960;BME280;63518;49.572;1.106;2023-08-06T13:19:07;99814.56;;;16.82;96.17